sensor_id;sensor_type;location;lat;lon;timestamp;pressure;altitude;pressure_sealevel;temperature;humidity
74613;BME280;63119;51.788;8.824;2022-12-18T00:01:40;101373.03;;;-7.74;74.65
74613;BME280;63119;51.788;8.824;2022-12-18T00:04:08;101374.22;;;-7.61;74.84
74613;BME280;63119;51.788;8.824;2022-12-18T00:06:39;101373.09;;;-7.71;74.91
74613;BME280;63119;51.788;8.824;2022-12-18T00:09:05;101379.75;;;-7.79;75.53
74613;BME280;63119;51.788;8.824;2022-12-18T00:11:31;101378.13;;;-7.76;74.98
74613;BME280;63119;51.788;8.824;2022-12-18T00:13:58;101395.34;;;-7.71;75.34
74613;BME280;63119;51.788;8.824;2022-12-18T00:16:25;101397.34;;;-7.61;75.41
74613;BME280;63119;51.788;8.824;2022-12-18T00:18:53;101392.69;;;-7.75;75.88
74613;BME280;63119;51.788;8.824;2022-12-18T00:21:20;101386.41;;;-7.86;74.88
74613;BME280;63119;51.788;8.824;2022-12-18T00:23:46;101392.97;;;-7.95;75.70
74613;BME280;63119;51.788;8.824;2022-12-18T00:26:18;101382.22;;;-7.82;75.03
74613;BME280;63119;51.788;8.824;2022-12-18T00:28:44;101392.84;;;-8.00;75.84
74613;BME280;63119;51.788;8.824;2022-12-18T00:31:15;101383.75;;;-7.89;76.16
74613;BME280;63119;51.788;8.824;2022-12-18T00:33:41;101385.53;;;-7.86;75.64
74613;BME280;63119;51.788;8.824;2022-12-18T00:38:34;101395.72;;;-7.89;75.02
74613;BME280;63119;51.788;8.824;2022-12-18T00:41:00;101396.06;;;-8.07;75.82
74613;BME280;63119;51.788;8.824;2022-12-18T00:43:26;101407.69;;;-7.90;76.04
74613;BME280;63119;51.788;8.824;2022-12-18T00:45:52;101402.44;;;-7.94;76.02
74613;BME280;63119;51.788;8.824;2022-12-18T00:48:17;101401.16;;;-7.79;75.64
74613;BME280;63119;51.788;8.824;2022-12-18T00:50:42;101393.31;;;-7.83;76.58
74613;BME280;63119;51.788;8.824;2022-12-18T00:53:08;101397.13;;;-7.99;75.50
74613;BME280;63119;51.788;8.824;2022-12-18T00:55:33;101398.44;;;-8.13;75.50
74613;BME280;63119;51.788;8.824;2022-12-18T00:57:58;101401.53;;;-8.24;75.39
74613;BME280;63119;51.788;8.824;2022-12-18T01:00:23;101398.34;;;-8.16;75.31
74613;BME280;63119;51.788;8.824;2022-12-18T01:02:49;101402.69;;;-8.13;75.02
74613;BME280;63119;51.788;8.824;2022-12-18T01:05:14;101405.19;;;-8.16;75.74
74613;BME280;63119;51.788;8.824;2022-12-18T01:07:40;101408.53;;;-8.19;74.79
74613;BME280;63119;51.788;8.824;2022-12-18T01:10:06;101405.72;;;-8.28;74.30
74613;BME280;63119;51.788;8.824;2022-12-18T01:12:32;101397.34;;;-8.21;74.44
74613;BME280;63119;51.788;8.824;2022-12-18T01:14:58;101395.00;;;-8.13;75.40
74613;BME280;63119;51.788;8.824;2022-12-18T01:17:23;101389.03;;;-8.12;74.87
74613;BME280;63119;51.788;8.824;2022-12-18T01:19:49;101396.75;;;-8.12;75.42
74613;BME280;63119;51.788;8.824;2022-12-18T01:22:14;101389.16;;;-8.08;76.17
74613;BME280;63119;51.788;8.824;2022-12-18T01:24:39;101397.66;;;-8.10;74.95
74613;BME280;63119;51.788;8.824;2022-12-18T01:27:05;101401.97;;;-8.09;75.10
74613;BME280;63119;51.788;8.824;2022-12-18T01:29:30;101395.09;;;-8.10;74.77
74613;BME280;63119;51.788;8.824;2022-12-18T01:31:56;101399.44;;;-8.08;74.97
74613;BME280;63119;51.788;8.824;2022-12-18T01:34:23;101394.72;;;-8.22;76.10
74613;BME280;63119;51.788;8.824;2022-12-18T01:36:48;101387.09;;;-8.21;75.38
74613;BME280;63119;51.788;8.824;2022-12-18T01:39:14;101393.22;;;-8.16;75.13
74613;BME280;63119;51.788;8.824;2022-12-18T01:41:40;101388.19;;;-8.11;75.91
74613;BME280;63119;51.788;8.824;2022-12-18T01:47:34;101397.84;;;-8.04;75.67
74613;BME280;63119;51.788;8.824;2022-12-18T01:50:16;101379.78;;;-8.07;76.36
74613;BME280;63119;51.788;8.824;2022-12-18T01:52:44;101377.75;;;-8.17;75.97
74613;BME280;63119;51.788;8.824;2022-12-18T01:55:10;101377.03;;;-8.13;76.94
74613;BME280;63119;51.788;8.824;2022-12-18T01:57:37;101382.13;;;-8.15;76.13
74613;BME280;63119;51.788;8.824;2022-12-18T02:00:17;101383.91;;;-8.12;75.44
74613;BME280;63119;51.788;8.824;2022-12-18T02:02:43;101385.69;;;-8.10;75.51
74613;BME280;63119;51.788;8.824;2022-12-18T02:05:11;101390.25;;;-8.29;75.70
74613;BME280;63119;51.788;8.824;2022-12-18T02:10:19;101385.25;;;-8.25;76.23
74613;BME280;63119;51.788;8.824;2022-12-18T02:15:26;101390.75;;;-8.13;75.29
74613;BME280;63119;51.788;8.824;2022-12-18T02:17:59;101381.34;;;-8.12;76.93
74613;BME280;63119;51.788;8.824;2022-12-18T02:20:47;101378.00;;;-8.10;75.27
74613;BME280;63119;51.788;8.824;2022-12-18T02:23:45;101382.94;;;-8.16;75.53
74613;BME280;63119;51.788;8.824;2022-12-18T02:26:33;101374.34;;;-8.18;76.84
74613;BME280;63119;51.788;8.824;2022-12-18T02:29:20;101370.09;;;-8.16;76.11
74613;BME280;63119;51.788;8.824;2022-12-18T02:31:58;101364.44;;;-8.04;76.28
74613;BME280;63119;51.788;8.824;2022-12-18T02:34:27;101371.63;;;-7.93;76.53
74613;BME280;63119;51.788;8.824;2022-12-18T02:36:54;101368.34;;;-7.87;76.73
74613;BME280;63119;51.788;8.824;2022-12-18T02:39:21;101365.06;;;-7.83;76.91
74613;BME280;63119;51.788;8.824;2022-12-18T02:41:49;101373.66;;;-7.81;76.67
74613;BME280;63119;51.788;8.824;2022-12-18T02:44:15;101364.53;;;-7.71;76.75
74613;BME280;63119;51.788;8.824;2022-12-18T02:46:43;101373.25;;;-7.66;76.83
74613;BME280;63119;51.788;8.824;2022-12-18T02:54:38;101349.34;;;-7.62;76.69
74613;BME280;63119;51.788;8.824;2022-12-18T02:57:16;101359.63;;;-7.62;77.31
74613;BME280;63119;51.788;8.824;2022-12-18T02:59:58;101348.34;;;-7.69;78.12
74613;BME280;63119;51.788;8.824;2022-12-18T03:02:31;101363.84;;;-7.66;78.19
74613;BME280;63119;51.788;8.824;2022-12-18T03:07:38;101364.19;;;-7.52;77.66
74613;BME280;63119;51.788;8.824;2022-12-18T03:10:06;101357.22;;;-7.56;78.10
74613;BME280;63119;51.788;8.824;2022-12-18T03:12:41;101371.34;;;-7.42;77.97
74613;BME280;63119;51.788;8.824;2022-12-18T03:15:22;101374.66;;;-7.46;78.18
74613;BME280;63119;51.788;8.824;2022-12-18T03:17:56;101370.38;;;-7.46;77.78
74613;BME280;63119;51.788;8.824;2022-12-18T03:20:25;101367.75;;;-7.47;78.75
74613;BME280;63119;51.788;8.824;2022-12-18T03:22:57;101368.34;;;-7.57;77.99
74613;BME280;63119;51.788;8.824;2022-12-18T03:25:25;101379.50;;;-7.57;78.47
74613;BME280;63119;51.788;8.824;2022-12-18T03:27:55;101377.06;;;-7.52;78.32
74613;BME280;63119;51.788;8.824;2022-12-18T03:30:23;101368.59;;;-7.48;79.21
74613;BME280;63119;51.788;8.824;2022-12-18T03:32:56;101363.22;;;-7.57;79.70
74613;BME280;63119;51.788;8.824;2022-12-18T03:35:29;101372.72;;;-7.53;78.67
74613;BME280;63119;51.788;8.824;2022-12-18T03:37:55;101377.06;;;-7.52;79.37
74613;BME280;63119;51.788;8.824;2022-12-18T03:40:26;101372.06;;;-7.46;79.81
74613;BME280;63119;51.788;8.824;2022-12-18T03:42:59;101378.72;;;-7.54;79.68
74613;BME280;63119;51.788;8.824;2022-12-18T03:45:32;101377.88;;;-7.53;79.97
74613;BME280;63119;51.788;8.824;2022-12-18T03:53:23;101382.28;;;-7.49;78.93
74613;BME280;63119;51.788;8.824;2022-12-18T03:55:51;101373.03;;;-7.43;79.95
74613;BME280;63119;51.788;8.824;2022-12-18T03:58:19;101374.06;;;-7.36;80.72
74613;BME280;63119;51.788;8.824;2022-12-18T04:00:47;101370.41;;;-7.44;79.79
74613;BME280;63119;51.788;8.824;2022-12-18T04:03:16;101371.34;;;-7.41;78.98
74613;BME280;63119;51.788;8.824;2022-12-18T04:05:43;101368.22;;;-7.29;79.09
74613;BME280;63119;51.788;8.824;2022-12-18T04:08:10;101374.88;;;-7.37;78.94
74613;BME280;63119;51.788;8.824;2022-12-18T04:10:36;101379.78;;;-7.46;78.82
74613;BME280;63119;51.788;8.824;2022-12-18T04:13:01;101378.13;;;-7.44;78.75
74613;BME280;63119;51.788;8.824;2022-12-18T04:15:26;101364.53;;;-7.40;78.97
74613;BME280;63119;51.788;8.824;2022-12-18T04:17:52;101369.03;;;-7.32;78.89
74613;BME280;63119;51.788;8.824;2022-12-18T04:20:17;101369.81;;;-7.34;78.35
74613;BME280;63119;51.788;8.824;2022-12-18T04:22:43;101365.34;;;-7.41;78.32
74613;BME280;63119;51.788;8.824;2022-12-18T04:25:08;101364.53;;;-7.40;79.06
74613;BME280;63119;51.788;8.824;2022-12-18T04:27:34;101366.03;;;-7.15;80.93
74613;BME280;63119;51.788;8.824;2022-12-18T04:29:59;101359.38;;;-7.07;80.75
74613;BME280;63119;51.788;8.824;2022-12-18T04:32:25;101359.34;;;-7.09;79.17
74613;BME280;63119;51.788;8.824;2022-12-18T04:34:50;101359.66;;;-6.97;79.13
74613;BME280;63119;51.788;8.824;2022-12-18T04:37:15;101372.09;;;-6.78;80.50
74613;BME280;63119;51.788;8.824;2022-12-18T04:39:40;101378.25;;;-6.71;80.80
74613;BME280;63119;51.788;8.824;2022-12-18T04:42:06;101383.03;;;-6.52;79.97
74613;BME280;63119;51.788;8.824;2022-12-18T04:44:31;101387.22;;;-6.55;79.45
74613;BME280;63119;51.788;8.824;2022-12-18T04:46:56;101392.13;;;-6.29;81.50
74613;BME280;63119;51.788;8.824;2022-12-18T04:49:21;101391.50;;;-5.77;81.75
74613;BME280;63119;51.788;8.824;2022-12-18T04:51:47;101388.50;;;-5.99;80.08
74613;BME280;63119;51.788;8.824;2022-12-18T04:54:12;101387.56;;;-5.58;81.95
74613;BME280;63119;51.788;8.824;2022-12-18T04:56:37;101395.72;;;-4.90;80.22
74613;BME280;63119;51.788;8.824;2022-12-18T04:59:03;101395.72;;;-4.89;79.31
74613;BME280;63119;51.788;8.824;2022-12-18T05:01:28;101394.31;;;-4.72;79.11
74613;BME280;63119;51.788;8.824;2022-12-18T05:03:53;101392.69;;;-4.65;78.93
74613;BME280;63119;51.788;8.824;2022-12-18T05:06:19;101392.81;;;-4.58;78.55
74613;BME280;63119;51.788;8.824;2022-12-18T05:08:44;101390.84;;;-4.71;77.90
74613;BME280;63119;51.788;8.824;2022-12-18T05:11:12;101388.91;;;-4.85;77.63
74613;BME280;63119;51.788;8.824;2022-12-18T05:13:40;101387.75;;;-5.01;77.44
74613;BME280;63119;51.788;8.824;2022-12-18T05:16:06;101387.06;;;-5.40;77.14
74613;BME280;63119;51.788;8.824;2022-12-18T05:18:32;101384.81;;;-5.67;77.91
74613;BME280;63119;51.788;8.824;2022-12-18T05:20:57;101388.56;;;-5.95;79.32
74613;BME280;63119;51.788;8.824;2022-12-18T05:23:24;101375.44;;;-6.07;79.17
74613;BME280;63119;51.788;8.824;2022-12-18T05:25:53;101373.53;;;-6.16;79.50
74613;BME280;63119;51.788;8.824;2022-12-18T05:28:19;101367.50;;;-6.18;79.67
74613;BME280;63119;51.788;8.824;2022-12-18T05:30:52;101361.97;;;-6.34;79.65
74613;BME280;63119;51.788;8.824;2022-12-18T05:33:18;101360.13;;;-6.40;79.46
74613;BME280;63119;51.788;8.824;2022-12-18T05:35:44;101361.53;;;-6.52;79.82
74613;BME280;63119;51.788;8.824;2022-12-18T05:38:10;101365.72;;;-6.57;80.51
74613;BME280;63119;51.788;8.824;2022-12-18T05:40:35;101366.69;;;-6.52;80.02
74613;BME280;63119;51.788;8.824;2022-12-18T05:43:04;101370.69;;;-6.28;81.90
74613;BME280;63119;51.788;8.824;2022-12-18T05:45:29;101374.03;;;-6.32;80.82
74613;BME280;63119;51.788;8.824;2022-12-18T05:47:55;101385.19;;;-6.31;80.94
74613;BME280;63119;51.788;8.824;2022-12-18T05:50:20;101383.09;;;-6.10;82.11
74613;BME280;63119;51.788;8.824;2022-12-18T05:52:45;101379.38;;;-5.37;82.36
74613;BME280;63119;51.788;8.824;2022-12-18T05:55:11;101378.09;;;-5.14;79.94
74613;BME280;63119;51.788;8.824;2022-12-18T05:57:36;101378.25;;;-5.04;80.38
74613;BME280;63119;51.788;8.824;2022-12-18T06:00:02;101379.63;;;-4.74;79.37
74613;BME280;63119;51.788;8.824;2022-12-18T06:02:28;101383.84;;;-4.79;78.84
74613;BME280;63119;51.788;8.824;2022-12-18T06:04:53;101383.94;;;-4.75;78.21
74613;BME280;63119;51.788;8.824;2022-12-18T06:07:18;101383.25;;;-4.63;78.50
74613;BME280;63119;51.788;8.824;2022-12-18T06:09:44;101378.22;;;-4.53;78.44
74613;BME280;63119;51.788;8.824;2022-12-18T06:12:09;101366.06;;;-4.61;78.27
74613;BME280;63119;51.788;8.824;2022-12-18T06:14:35;101372.53;;;-4.32;77.92
74613;BME280;63119;51.788;8.824;2022-12-18T06:17:00;101375.22;;;-4.24;77.64
74613;BME280;63119;51.788;8.824;2022-12-18T06:19:26;101379.75;;;-4.07;77.24
74613;BME280;63119;51.788;8.824;2022-12-18T06:21:51;101376.50;;;-3.92;76.19
74613;BME280;63119;51.788;8.824;2022-12-18T06:24:16;101378.38;;;-3.83;76.21
74613;BME280;63119;51.788;8.824;2022-12-18T06:26:42;101385.25;;;-3.84;76.55
74613;BME280;63119;51.788;8.824;2022-12-18T06:29:07;101386.19;;;-3.76;75.61
74613;BME280;63119;51.788;8.824;2022-12-18T06:31:33;101389.72;;;-3.71;75.70
74613;BME280;63119;51.788;8.824;2022-12-18T06:33:58;101394.06;;;-3.67;75.56
74613;BME280;63119;51.788;8.824;2022-12-18T06:36:23;101398.28;;;-3.75;75.29
74613;BME280;63119;51.788;8.824;2022-12-18T06:38:49;101398.38;;;-3.69;75.16
74613;BME280;63119;51.788;8.824;2022-12-18T06:41:16;101386.31;;;-3.67;75.29
74613;BME280;63119;51.788;8.824;2022-12-18T06:43:43;101394.81;;;-3.77;76.09
74613;BME280;63119;51.788;8.824;2022-12-18T06:46:09;101394.72;;;-3.84;76.21
74613;BME280;63119;51.788;8.824;2022-12-18T06:48:34;101397.50;;;-3.71;75.97
74613;BME280;63119;51.788;8.824;2022-12-18T06:50:59;101404.34;;;-3.73;75.84
74613;BME280;63119;51.788;8.824;2022-12-18T06:53:25;101406.88;;;-3.76;75.49
74613;BME280;63119;51.788;8.824;2022-12-18T06:55:50;101412.09;;;-3.73;75.49
74613;BME280;63119;51.788;8.824;2022-12-18T06:58:16;101413.84;;;-3.72;75.35
74613;BME280;63119;51.788;8.824;2022-12-18T07:00:41;101418.28;;;-3.62;74.72
74613;BME280;63119;51.788;8.824;2022-12-18T07:03:07;101409.50;;;-3.74;75.34
74613;BME280;63119;51.788;8.824;2022-12-18T07:05:32;101418.97;;;-3.75;74.38
74613;BME280;63119;51.788;8.824;2022-12-18T07:07:58;101422.41;;;-3.76;75.27
74613;BME280;63119;51.788;8.824;2022-12-18T07:10:23;101420.69;;;-3.77;75.47
74613;BME280;63119;51.788;8.824;2022-12-18T07:12:49;101418.09;;;-3.77;74.87
74613;BME280;63119;51.788;8.824;2022-12-18T07:15:14;101417.28;;;-3.73;74.66
74613;BME280;63119;51.788;8.824;2022-12-18T07:17:39;101421.75;;;-3.60;74.85
74613;BME280;63119;51.788;8.824;2022-12-18T07:20:05;101421.56;;;-3.75;74.52
74613;BME280;63119;51.788;8.824;2022-12-18T07:22:30;101422.41;;;-3.76;74.57
74613;BME280;63119;51.788;8.824;2022-12-18T07:24:55;101414.75;;;-3.68;74.66
74613;BME280;63119;51.788;8.824;2022-12-18T07:27:21;101410.50;;;-3.63;73.91
74613;BME280;63119;51.788;8.824;2022-12-18T07:29:47;101404.44;;;-3.64;73.46
74613;BME280;63119;51.788;8.824;2022-12-18T07:32:12;101405.34;;;-3.62;74.20
74613;BME280;63119;51.788;8.824;2022-12-18T07:34:37;101407.19;;;-3.52;74.23
74613;BME280;63119;51.788;8.824;2022-12-18T07:37:03;101398.53;;;-3.52;73.83
74613;BME280;63119;51.788;8.824;2022-12-18T07:39:28;101408.81;;;-3.60;73.50
74613;BME280;63119;51.788;8.824;2022-12-18T07:41:53;101405.31;;;-3.65;74.16
74613;BME280;63119;51.788;8.824;2022-12-18T07:44:37;101408.75;;;-3.66;74.07
74613;BME280;63119;51.788;8.824;2022-12-18T07:47:03;101404.28;;;-3.77;74.54
74613;BME280;63119;51.788;8.824;2022-12-18T07:49:28;101405.97;;;-3.81;74.82
74613;BME280;63119;51.788;8.824;2022-12-18T07:51:55;101416.41;;;-3.73;74.62
74613;BME280;63119;51.788;8.824;2022-12-18T07:54:21;101413.03;;;-3.66;75.18
74613;BME280;63119;51.788;8.824;2022-12-18T07:56:47;101418.81;;;-3.15;72.77
74613;BME280;63119;51.788;8.824;2022-12-18T07:59:12;101412.31;;;-2.72;71.46
74613;BME280;63119;51.788;8.824;2022-12-18T08:01:37;101418.56;;;-2.50;70.49
74613;BME280;63119;51.788;8.824;2022-12-18T08:04:03;101423.88;;;-2.32;69.78
74613;BME280;63119;51.788;8.824;2022-12-18T08:06:28;101426.47;;;-2.31;69.78
74613;BME280;63119;51.788;8.824;2022-12-18T08:08:55;101416.22;;;-2.14;69.18
74613;BME280;63119;51.788;8.824;2022-12-18T08:11:22;101417.69;;;-2.48;70.06
74613;BME280;63119;51.788;8.824;2022-12-18T08:13:48;101416.13;;;-2.29;69.71
74613;BME280;63119;51.788;8.824;2022-12-18T08:16:13;101419.75;;;-2.01;68.67
74613;BME280;63119;51.788;8.824;2022-12-18T08:18:38;101423.31;;;-1.83;68.71
74613;BME280;63119;51.788;8.824;2022-12-18T08:21:14;101415.41;;;-2.05;68.52
74613;BME280;63119;51.788;8.824;2022-12-18T08:23:41;101415.44;;;-1.99;68.71
74613;BME280;63119;51.788;8.824;2022-12-18T08:26:06;101411.13;;;-1.99;68.00
74613;BME280;63119;51.788;8.824;2022-12-18T08:28:32;101393.16;;;-1.55;66.08
74613;BME280;63119;51.788;8.824;2022-12-18T08:30:57;101402.56;;;-1.83;67.04
74613;BME280;63119;51.788;8.824;2022-12-18T08:33:23;101393.19;;;-1.40;65.82
74613;BME280;63119;51.788;8.824;2022-12-18T08:35:48;101384.56;;;-1.33;65.85
74613;BME280;63119;51.788;8.824;2022-12-18T08:38:13;101388.94;;;-1.18;65.17
74613;BME280;63119;51.788;8.824;2022-12-18T08:40:39;101388.88;;;-1.47;65.99
74613;BME280;63119;51.788;8.824;2022-12-18T08:43:04;101374.19;;;-1.36;65.03
74613;BME280;63119;51.788;8.824;2022-12-18T08:45:48;101380.22;;;-1.44;64.88
74613;BME280;63119;51.788;8.824;2022-12-18T08:48:13;101378.41;;;-1.68;66.57
74613;BME280;63119;51.788;8.824;2022-12-18T08:50:40;101364.56;;;-1.64;66.66
74613;BME280;63119;51.788;8.824;2022-12-18T08:53:05;101375.97;;;-1.20;64.88
74613;BME280;63119;51.788;8.824;2022-12-18T08:55:31;101385.47;;;-1.20;65.44
74613;BME280;63119;51.788;8.824;2022-12-18T08:57:56;101395.03;;;-1.01;64.04
74613;BME280;63119;51.788;8.824;2022-12-18T09:00:21;101381.97;;;-0.03;61.54
74613;BME280;63119;51.788;8.824;2022-12-18T09:02:47;101379.38;;;-0.03;60.82
74613;BME280;63119;51.788;8.824;2022-12-18T09:05:12;101388.09;;;-0.19;60.74
74613;BME280;63119;51.788;8.824;2022-12-18T09:07:37;101367.78;;;0.74;59.47
74613;BME280;63119;51.788;8.824;2022-12-18T09:10:03;101375.38;;;1.04;57.40
74613;BME280;63119;51.788;8.824;2022-12-18T09:12:29;101362.50;;;0.83;57.14
74613;BME280;63119;51.788;8.824;2022-12-18T09:14:55;101370.34;;;0.79;57.55
74613;BME280;63119;51.788;8.824;2022-12-18T09:17:21;101364.53;;;0.25;59.23
74613;BME280;63119;51.788;8.824;2022-12-18T09:19:46;101382.94;;;-0.37;60.65
74613;BME280;63119;51.788;8.824;2022-12-18T09:22:12;101378.59;;;-0.51;62.51
74613;BME280;63119;51.788;8.824;2022-12-18T09:24:37;101375.13;;;-0.87;62.70
74613;BME280;63119;51.788;8.824;2022-12-18T09:27:02;101376.00;;;-0.95;63.63
74613;BME280;63119;51.788;8.824;2022-12-18T09:29:28;101373.38;;;-0.97;63.14
74613;BME280;63119;51.788;8.824;2022-12-18T09:31:53;101370.81;;;-0.89;63.54
74613;BME280;63119;51.788;8.824;2022-12-18T09:34:18;101380.34;;;-1.00;62.84
74613;BME280;63119;51.788;8.824;2022-12-18T09:36:46;101383.75;;;-1.06;63.77
74613;BME280;63119;51.788;8.824;2022-12-18T09:39:12;101382.03;;;-1.08;63.32
74613;BME280;63119;51.788;8.824;2022-12-18T09:41:47;101395.00;;;-1.12;64.17
74613;BME280;63119;51.788;8.824;2022-12-18T09:47:04;101403.69;;;-1.16;63.14
74613;BME280;63119;51.788;8.824;2022-12-18T09:49:40;101381.16;;;-1.14;63.53
74613;BME280;63119;51.788;8.824;2022-12-18T09:52:21;101379.41;;;-1.24;63.71
74613;BME280;63119;51.788;8.824;2022-12-18T09:55:41;101369.88;;;-1.26;63.49
74613;BME280;63119;51.788;8.824;2022-12-18T09:57:46;101380.25;;;-1.31;64.24
74613;BME280;63119;51.788;8.824;2022-12-18T10:00:19;101385.53;;;-0.88;63.44
74613;BME280;63119;51.788;8.824;2022-12-18T10:02:45;101387.28;;;-0.68;62.24
74613;BME280;63119;51.788;8.824;2022-12-18T10:05:17;101389.00;;;-0.70;62.47
74613;BME280;63119;51.788;8.824;2022-12-18T10:07:49;101382.94;;;-0.49;61.39
74613;BME280;63119;51.788;8.824;2022-12-18T10:13:04;101376.88;;;-0.62;61.13
74613;BME280;63119;51.788;8.824;2022-12-18T10:16:33;101387.22;;;-0.24;60.20
74613;BME280;63119;51.788;8.824;2022-12-18T10:18:52;101390.72;;;-0.31;59.88
74613;BME280;63119;51.788;8.824;2022-12-18T10:21:33;101381.16;;;-0.29;60.28
74613;BME280;63119;51.788;8.824;2022-12-18T10:24:18;101395.03;;;-0.33;59.87
74613;BME280;63119;51.788;8.824;2022-12-18T10:26:48;101377.69;;;-0.13;59.95
74613;BME280;63119;51.788;8.824;2022-12-18T10:29:15;101372.31;;;0.36;58.76
74613;BME280;63119;51.788;8.824;2022-12-18T10:31:41;101367.25;;;-0.01;59.18
74613;BME280;63119;51.788;8.824;2022-12-18T10:34:29;101345.50;;;0.13;58.33
74613;BME280;63119;51.788;8.824;2022-12-18T10:36:54;101341.16;;;0.21;58.88
74613;BME280;63119;51.788;8.824;2022-12-18T10:39:24;101330.75;;;0.15;58.11
74613;BME280;63119;51.788;8.824;2022-12-18T10:41:51;101323.78;;;0.27;58.23
74613;BME280;63119;51.788;8.824;2022-12-18T10:44:23;101309.84;;;0.36;57.51
74613;BME280;63119;51.788;8.824;2022-12-18T10:46:54;101316.81;;;0.26;57.93
74613;BME280;63119;51.788;8.824;2022-12-18T10:49:29;101316.81;;;0.25;58.05
74613;BME280;63119;51.788;8.824;2022-12-18T10:52:16;101310.06;;;-0.17;59.28
74613;BME280;63119;51.788;8.824;2022-12-18T10:54:51;101299.41;;;0.39;58.59
74613;BME280;63119;51.788;8.824;2022-12-18T10:57:29;101283.03;;;0.13;59.26
74613;BME280;63119;51.788;8.824;2022-12-18T10:59:57;101291.84;;;-0.10;59.85
74613;BME280;63119;51.788;8.824;2022-12-18T11:02:37;101283.19;;;-0.24;59.87
74613;BME280;63119;51.788;8.824;2022-12-18T11:05:07;101290.97;;;-0.21;59.37
74613;BME280;63119;51.788;8.824;2022-12-18T11:07:50;101307.50;;;-0.31;60.14
74613;BME280;63119;51.788;8.824;2022-12-18T11:12:41;101295.25;;;-0.06;59.62
74613;BME280;63119;51.788;8.824;2022-12-18T11:15:19;101293.63;;;-0.28;59.47
74613;BME280;63119;51.788;8.824;2022-12-18T11:17:49;101285.84;;;-0.39;60.41
74613;BME280;63119;51.788;8.824;2022-12-18T11:20:30;101270.28;;;-0.51;60.12
74613;BME280;63119;51.788;8.824;2022-12-18T11:23:05;101274.56;;;-0.36;60.10
74613;BME280;63119;51.788;8.824;2022-12-18T11:25:35;101262.44;;;-0.39;59.92
74613;BME280;63119;51.788;8.824;2022-12-18T11:28:25;101251.97;;;-0.19;59.84
74613;BME280;63119;51.788;8.824;2022-12-18T11:31:28;101247.63;;;-0.20;58.30
74613;BME280;63119;51.788;8.824;2022-12-18T11:34:21;101227.66;;;-0.15;59.07
74613;BME280;63119;51.788;8.824;2022-12-18T11:36:48;101220.75;;;-0.18;59.02
74613;BME280;63119;51.788;8.824;2022-12-18T11:39:34;101216.44;;;-0.20;58.66
74613;BME280;63119;51.788;8.824;2022-12-18T11:42:09;101226.00;;;-0.25;59.12
74613;BME280;63119;51.788;8.824;2022-12-18T11:47:20;101206.00;;;-0.10;58.64
74613;BME280;63119;51.788;8.824;2022-12-18T11:49:48;101205.19;;;-0.22;57.76
74613;BME280;63119;51.788;8.824;2022-12-18T11:54:42;101193.81;;;-0.05;58.01
74613;BME280;63119;51.788;8.824;2022-12-18T11:57:29;101207.63;;;0.04;57.22
74613;BME280;63119;51.788;8.824;2022-12-18T12:00:15;101188.53;;;0.08;57.08
74613;BME280;63119;51.788;8.824;2022-12-18T12:06:08;101183.34;;;0.08;57.40
74613;BME280;63119;51.788;8.824;2022-12-18T12:11:27;101177.09;;;0.33;56.48
74613;BME280;63119;51.788;8.824;2022-12-18T12:22:11;101159.75;;;0.33;55.95
74613;BME280;63119;51.788;8.824;2022-12-18T12:25:08;101145.03;;;0.26;56.65
74613;BME280;63119;51.788;8.824;2022-12-18T12:28:09;101147.69;;;0.16;56.30
74613;BME280;63119;51.788;8.824;2022-12-18T12:31:03;101151.22;;;0.10;57.85
74613;BME280;63119;51.788;8.824;2022-12-18T12:33:49;101145.25;;;-0.04;56.74
74613;BME280;63119;51.788;8.824;2022-12-18T12:39:05;101147.81;;;0.02;56.70
74613;BME280;63119;51.788;8.824;2022-12-18T12:41:33;101147.84;;;-0.04;57.41
74613;BME280;63119;51.788;8.824;2022-12-18T12:44:25;101143.53;;;-0.04;56.86
74613;BME280;63119;51.788;8.824;2022-12-18T12:46:56;101141.78;;;-0.05;57.11
74613;BME280;63119;51.788;8.824;2022-12-18T12:49:26;101151.34;;;-0.07;57.92
74613;BME280;63119;51.788;8.824;2022-12-18T12:52:00;101143.50;;;-0.05;57.67
74613;BME280;63119;51.788;8.824;2022-12-18T12:54:28;101151.34;;;-0.07;57.67
74613;BME280;63119;51.788;8.824;2022-12-18T13:02:44;101143.47;;;0.03;57.28
74613;BME280;63119;51.788;8.824;2022-12-18T13:05:38;101142.59;;;0.04;57.20
74613;BME280;63119;51.788;8.824;2022-12-18T13:08:08;101143.47;;;0.06;56.41
74613;BME280;63119;51.788;8.824;2022-12-18T13:10:41;101142.59;;;0.02;56.89
74613;BME280;63119;51.788;8.824;2022-12-18T13:13:10;101140.00;;;0.02;56.20
74613;BME280;63119;51.788;8.824;2022-12-18T13:18:16;101129.50;;;0.14;56.74
74613;BME280;63119;51.788;8.824;2022-12-18T13:30:57;101115.69;;;0.05;56.27
74613;BME280;63119;51.788;8.824;2022-12-18T13:36:28;101115.69;;;0.05;56.92
74613;BME280;63119;51.788;8.824;2022-12-18T13:41:41;101094.94;;;-0.02;56.95
74613;BME280;63119;51.788;8.824;2022-12-18T13:44:25;101081.03;;;0.03;57.11
74613;BME280;63119;51.788;8.824;2022-12-18T13:46:53;101075.84;;;-0.01;56.80
74613;BME280;63119;51.788;8.824;2022-12-18T13:49:27;101084.53;;;0.00;56.60
74613;BME280;63119;51.788;8.824;2022-12-18T13:51:56;101072.38;;;-0.03;56.80
74613;BME280;63119;51.788;8.824;2022-12-18T13:54:36;101075.84;;;0.03;56.91
74613;BME280;63119;51.788;8.824;2022-12-18T13:57:03;101070.72;;;-0.10;57.12
74613;BME280;63119;51.788;8.824;2022-12-18T13:59:37;101067.19;;;-0.03;57.63
74613;BME280;63119;51.788;8.824;2022-12-18T14:02:15;101071.44;;;0.08;56.41
74613;BME280;63119;51.788;8.824;2022-12-18T14:04:41;101084.53;;;0.00;57.12
74613;BME280;63119;51.788;8.824;2022-12-18T14:07:15;101077.66;;;-0.10;58.16
74613;BME280;63119;51.788;8.824;2022-12-18T14:10:14;101086.31;;;-0.08;57.62
74613;BME280;63119;51.788;8.824;2022-12-18T14:12:45;101079.38;;;-0.11;57.22
74613;BME280;63119;51.788;8.824;2022-12-18T14:17:57;101075.06;;;-0.12;57.56
74613;BME280;63119;51.788;8.824;2022-12-18T14:20:31;101068.13;;;-0.11;57.16
74613;BME280;63119;51.788;8.824;2022-12-18T14:22:58;101070.75;;;-0.14;57.37
74613;BME280;63119;51.788;8.824;2022-12-18T14:25:28;101068.06;;;-0.05;57.41